Terminal Aerodrome Forecast
Issued by NWS Wichita, KS

Home | Current Version | Previous Version | Graphics & Text | Print | Product List | Glossary On
Versions: 1 2 3 4 5 6 7 8 9 10 11 12 13 14 15 16 17 18 19 20 21 22 23 24 25 26 27 28 29
000
FTUS43 KICT 220941 AAA
TAFICT
TAF AMD
KICT 220941Z 2210/2306 11005KT P6SM SCT080 OVC200
     FM221200 11006KT 6SM -RA SCT025 OVC040
      TEMPO 2212/2215 3SM RA SCT015 OVC025
     FM221500 14011KT 6SM BR VCSH OVC015=

USA.gov is the U.S. government's official web portal to all federal, state and local government web resources and services.